Time;durP1;ratioP1;P1;durP2;ratioP2;P2;SDS_P1;SDS_P2;PMS_P1;PMS_P2;Temp;Humidity;BMP_temperature;BMP_pressure;BME280_temperature;BME280_humidity;BME280_pressure;Samples;Min_cycle;Max_cycle;Signal;HPM_P1;HPM_P2
2022/06/23 00:01:15;;;;;;;17.77;16.27;;;;;;;17.83;100.00;96785.50;5042510;28;21680;-68
2022/06/23 00:03:45;;;;;;;17.87;16.47;;;;;;;17.90;100.00;96791.53;5043161;28;20202;-70
2022/06/23 00:06:30;;;;;;;19.60;18.00;;;;;;;17.77;100.00;96787.28;5025445;28;20917;-70
2022/06/23 00:08:59;;;;;;;18.60;17.00;;;;;;;17.75;100.00;96797.41;5031074;28;20886;-70
2022/06/23 00:11:28;;;;;;;19.80;17.90;;;;;;;17.80;100.00;96794.03;5041167;28;20203;-70
2022/06/23 00:14:13;;;;;;;19.07;17.47;;;;;;;17.78;100.00;96790.78;5016983;28;20261;-72
2022/06/23 00:16:41;;;;;;;18.00;16.57;;;;;;;17.76;100.00;96793.69;5040959;28;20355;-70
2022/06/23 00:19:13;;;;;;;17.90;16.43;;;;;;;17.70;100.00;96791.97;4991403;28;20780;-70
2022/06/23 00:21:44;;;;;;;18.67;17.17;;;;;;;17.79;100.00;96787.03;5044497;28;20260;-68
2022/06/23 00:24:22;;;;;;;17.33;15.93;;;;;;;17.75;100.00;96785.91;5022835;28;20226;-70
2022/06/23 00:26:53;;;;;;;18.40;16.83;;;;;;;17.84;100.00;96779.09;5043569;28;20231;-67
2022/06/23 00:29:23;;;;;;;16.70;15.50;;;;;;;17.84;100.00;96789.00;5028794;28;20222;-67
2022/06/23 00:31:56;;;;;;;15.53;14.33;;;;;;;17.73;100.00;96786.13;5047906;28;21450;-67
2022/06/23 00:34:26;;;;;;;16.00;14.67;;;;;;;17.73;100.00;96785.31;5013561;28;20330;-68
2022/06/23 00:36:56;;;;;;;16.13;14.93;;;;;;;17.75;100.00;96793.94;5047779;28;20191;-66
2022/06/23 00:39:29;;;;;;;17.20;15.87;;;;;;;17.61;100.00;96788.03;5024541;28;20223;-68
2022/06/23 00:41:58;;;;;;;17.07;15.67;;;;;;;17.49;100.00;96788.91;5047112;28;20254;-68
2022/06/23 00:44:32;;;;;;;17.00;15.70;;;;;;;17.67;100.00;96791.66;5036517;28;20262;-68
2022/06/23 00:47:03;;;;;;;17.50;16.00;;;;;;;17.68;100.00;96793.28;5030319;28;20690;-68
2022/06/23 00:49:36;;;;;;;15.87;14.60;;;;;;;17.68;100.00;96785.25;5012965;28;20203;-72
2022/06/23 00:52:14;;;;;;;15.70;14.20;;;;;;;17.42;100.00;96795.44;5042956;28;20265;-70
2022/06/23 00:54:45;;;;;;;14.10;13.10;;;;;;;17.42;100.00;96790.09;5025743;28;20999;-66
2022/06/23 00:57:17;;;;;;;15.77;14.60;;;;;;;17.28;100.00;96789.53;5043591;28;20234;-69
2022/06/23 00:59:48;;;;;;;14.30;13.20;;;;;;;17.29;100.00;96789.31;5043807;28;21708;-65
2022/06/23 01:02:19;;;;;;;13.93;12.87;;;;;;;17.29;100.00;96783.97;5029891;28;20282;-70
2022/06/23 01:04:51;;;;;;;14.37;13.37;;;;;;;17.29;100.00;96785.81;5011408;28;20255;-66
2022/06/23 01:07:33;;;;;;;15.17;13.97;;;;;;;17.22;100.00;96783.25;5040527;28;20256;-69
2022/06/23 01:10:05;;;;;;;15.07;13.80;;;;;;;17.20;100.00;96774.66;5043401;28;20199;-70
2022/06/23 01:12:42;;;;;;;15.83;14.73;;;;;;;17.07;100.00;96781.91;5026124;28;20203;-68
2022/06/23 01:15:21;;;;;;;16.10;14.80;;;;;;;17.01;100.00;96785.53;5043233;28;20361;-71
2022/06/23 01:17:52;;;;;;;15.00;14.00;;;;;;;17.10;100.00;96794.03;5031087;28;20722;-71
2022/06/23 01:20:25;;;;;;;15.77;14.37;;;;;;;17.18;100.00;96798.16;5014271;28;21832;-71
2022/06/23 01:23:17;;;;;;;16.00;14.63;;;;;;;17.24;100.00;96799.09;5042375;28;20290;-68
2022/06/23 01:26:00;;;;;;;16.00;14.80;;;;;;;17.06;100.00;96800.91;5041958;28;20266;-66
2022/06/23 01:28:32;;;;;;;17.13;15.63;;;;;;;16.97;100.00;96805.75;5022111;28;20868;-70
2022/06/23 01:31:05;;;;;;;15.30;14.20;;;;;;;17.05;100.00;96810.78;5017316;28;20719;-72
2022/06/23 01:33:39;;;;;;;15.97;14.30;;;;;;;17.07;100.00;96818.59;5023738;28;20239;-68
2022/06/23 01:36:14;;;;;;;15.93;14.63;;;;;;;16.97;100.00;96813.78;5007366;28;20226;-71
2022/06/23 01:38:51;;;;;;;16.43;15.07;;;;;;;17.06;100.00;96809.72;5036006;28;20222;-69
2022/06/23 01:41:23;;;;;;;14.47;13.40;;;;;;;17.01;100.00;96811.47;5040957;28;20212;-68
2022/06/23 01:43:59;;;;;;;15.90;14.73;;;;;;;16.91;100.00;96809.38;5003502;28;20976;-70
2022/06/23 01:46:32;;;;;;;16.27;14.83;;;;;;;16.98;100.00;96812.75;5044404;28;20307;-70
2022/06/23 01:49:04;;;;;;;15.53;14.23;;;;;;;17.07;100.00;96808.69;5028254;28;20908;-70
2022/06/23 01:51:40;;;;;;;15.03;13.93;;;;;;;16.93;100.00;96804.59;5015033;28;20245;-68
2022/06/23 01:54:12;;;;;;;14.93;13.73;;;;;;;16.76;100.00;96807.16;5041150;28;20288;-70
2022/06/23 01:56:49;;;;;;;16.67;14.67;;;;;;;16.61;100.00;96800.41;5019024;28;20203;-71
2022/06/23 01:59:28;;;;;;;14.17;12.97;;;;;;;16.64;100.00;96802.59;5001849;28;20338;-66
2022/06/23 02:02:16;;;;;;;14.93;13.43;;;;;;;16.58;100.00;96800.06;5044062;28;20191;-69
2022/06/23 02:04:52;;;;;;;14.93;13.83;;;;;;;16.57;100.00;96798.44;5031797;28;20230;-70
2022/06/23 02:07:24;;;;;;;13.80;12.70;;;;;;;16.51;100.00;96799.38;5016696;28;20487;-66
2022/06/23 02:09:54;;;;;;;14.33;13.20;;;;;;;16.42;100.00;96801.56;5042080;28;20194;-70
2022/06/23 02:12:28;;;;;;;13.60;12.60;;;;;;;16.32;100.00;96807.47;5045369;28;20249;-70
2022/06/23 02:15:04;;;;;;;13.47;12.57;;;;;;;16.23;100.00;96803.50;4999255;28;20319;-68
2022/06/23 02:17:39;;;;;;;12.63;11.63;;;;;;;16.16;100.00;96793.75;5049764;28;20198;-69
2022/06/23 02:20:22;;;;;;;13.60;12.30;;;;;;;16.19;100.00;96797.78;5027183;28;21026;-66
2022/06/23 02:23:02;;;;;;;14.00;13.00;;;;;;;16.04;100.00;96803.56;5021859;28;20199;-70
2022/06/23 02:25:36;;;;;;;13.90;12.80;;;;;;;16.01;100.00;96806.69;5005795;28;20257;-68
2022/06/23 02:28:11;;;;;;;13.87;12.87;;;;;;;15.95;100.00;96797.75;5027486;28;20226;-69
2022/06/23 02:30:45;;;;;;;15.27;14.07;;;;;;;15.86;100.00;96810.59;5025998;28;20558;-67
2022/06/23 02:33:22;;;;;;;14.50;13.40;;;;;;;15.97;100.00;96816.22;5020896;28;20210;-70
2022/06/23 02:35:57;;;;;;;14.03;12.93;;;;;;;15.82;100.00;96817.41;5044665;28;20219;-66
2022/06/23 02:38:27;;;;;;;15.13;13.77;;;;;;;15.77;100.00;96820.75;5027373;28;20302;-65
2022/06/23 02:40:57;;;;;;;13.97;12.77;;;;;;;15.67;100.00;96825.00;5011143;28;20292;-69
2022/06/23 02:43:30;;;;;;;13.50;12.50;;;;;;;15.66;100.00;96828.72;5041967;28;20889;-67
2022/06/23 02:46:37;;;;;;;14.60;13.40;;;;;;;15.63;100.00;96825.47;5046000;28;21533;-67
2022/06/23 02:49:31;;;;;;;14.77;13.47;;;;;;;15.63;100.00;96820.13;5026765;28;20202;-70
2022/06/23 02:52:41;;;;;;;14.73;13.53;;;;;;;15.61;100.00;96822.19;5025728;28;20238;-69
2022/06/23 02:55:36;;;;;;;16.33;14.77;;;;;;;15.52;100.00;96812.03;4987206;28;20325;-70
2022/06/23 02:58:09;;;;;;;14.30;12.90;;;;;;;15.53;100.00;96817.19;5044217;28;20223;-71
2022/06/23 03:00:44;;;;;;;15.67;14.47;;;;;;;15.94;100.00;96820.16;5046944;28;20227;-68
2022/06/23 03:03:19;;;;;;;14.80;13.70;;;;;;;15.71;100.00;96816.34;5043857;28;20199;-70
2022/06/23 03:05:53;;;;;;;15.80;14.37;;;;;;;15.51;100.00;96818.44;5025322;28;20238;-66
2022/06/23 03:08:28;;;;;;;16.07;14.77;;;;;;;15.49;100.00;96816.78;5022038;28;20928;-68
2022/06/23 03:10:58;;;;;;;16.67;14.97;;;;;;;15.67;100.00;96820.50;5013213;28;20944;-71
2022/06/23 03:13:44;;;;;;;16.63;15.33;;;;;;;15.63;100.00;96828.13;5031952;28;20211;-68
2022/06/23 03:16:20;;;;;;;15.43;14.13;;;;;;;15.56;100.00;96827.41;5046095;28;20214;-69
2022/06/23 03:18:54;;;;;;;14.77;13.47;;;;;;;15.47;100.00;96828.75;5045749;28;20209;-72
2022/06/23 03:21:27;;;;;;;16.33;15.03;;;;;;;15.45;100.00;96836.19;5019464;28;20220;-68
2022/06/23 03:23:59;;;;;;;15.27;14.17;;;;;;;15.44;100.00;96832.69;5027587;28;20281;-68
2022/06/23 03:26:33;;;;;;;16.10;14.70;;;;;;;15.49;100.00;96837.34;5003165;28;20304;-67
2022/06/23 03:29:16;;;;;;;17.57;16.03;;;;;;;15.65;100.00;96841.28;5043417;28;20747;-66
2022/06/23 03:31:47;;;;;;;18.20;16.80;;;;;;;15.69;100.00;96844.28;5044846;28;20286;-66
2022/06/23 03:34:19;;;;;;;17.60;16.20;;;;;;;15.75;100.00;96851.44;5040299;28;20195;-65
2022/06/23 03:36:55;;;;;;;19.13;17.53;;;;;;;15.82;100.00;96857.50;5041921;28;20652;-68
2022/06/23 03:42:23;;;;;;;18.73;17.23;;;;;;;16.00;100.00;96869.19;4996895;28;20211;-66
2022/06/23 03:44:55;;;;;;;19.63;17.97;;;;;;;16.06;100.00;96868.28;5043122;28;20242;-67
2022/06/23 03:47:31;;;;;;;19.93;18.10;;;;;;;16.10;100.00;96864.13;5043055;28;20526;-69
2022/06/23 03:50:02;;;;;;;17.53;16.13;;;;;;;16.18;100.00;96865.66;5040251;28;20242;-65
2022/06/23 03:52:37;;;;;;;18.47;16.97;;;;;;;16.15;100.00;96864.28;5024945;28;20460;-67
2022/06/23 03:55:16;;;;;;;17.33;15.83;;;;;;;16.23;100.00;96870.34;5040075;28;20279;-66
2022/06/23 03:57:47;;;;;;;17.60;16.00;;;;;;;16.30;100.00;96871.03;4994060;28;20247;-66
2022/06/23 04:00:24;;;;;;;19.20;17.37;;;;;;;16.35;100.00;96874.66;5038846;28;20222;-65
2022/06/23 04:03:02;;;;;;;17.67;16.17;;;;;;;16.48;100.00;96870.97;5040483;28;20207;-66
2022/06/23 04:05:48;;;;;;;21.43;16.63;;;;;;;16.41;100.00;96869.44;5043651;28;20238;-66
2022/06/23 04:08:17;;;;;;;17.50;16.03;;;;;;;16.37;100.00;96874.44;5023465;28;20277;-65
2022/06/23 04:10:46;;;;;;;18.57;16.97;;;;;;;16.47;100.00;96874.66;5044441;28;20205;-67
2022/06/23 04:13:18;;;;;;;17.83;16.33;;;;;;;16.48;100.00;96879.00;4993071;28;20420;-65
2022/06/23 04:15:49;;;;;;;19.13;17.33;;;;;;;16.58;100.00;96877.63;5042319;28;20226;-66
2022/06/23 04:18:21;;;;;;;18.17;16.67;;;;;;;16.60;100.00;96884.34;5041474;28;20206;-65
2022/06/23 04:20:52;;;;;;;16.40;15.23;;;;;;;16.52;100.00;96876.66;5042832;28;20303;-69
2022/06/23 04:23:26;;;;;;;16.93;15.43;;;;;;;16.58;100.00;96885.66;5022594;28;20904;-68
2022/06/23 04:25:59;;;;;;;17.53;16.13;;;;;;;16.70;100.00;96877.66;5043207;28;20397;-65
2022/06/23 04:28:33;;;;;;;17.63;16.20;;;;;;;16.74;100.00;96876.94;4994986;28;20277;-68
2022/06/23 04:31:04;;;;;;;16.87;15.47;;;;;;;16.87;100.00;96875.91;5041030;28;20222;-66
2022/06/23 04:33:36;;;;;;;18.20;16.70;;;;;;;16.92;100.00;96883.25;4993310;28;20218;-65
2022/06/23 04:36:06;;;;;;;17.10;15.70;;;;;;;16.96;100.00;96880.91;5047632;28;20291;-66
2022/06/23 04:38:39;;;;;;;17.60;16.20;;;;;;;17.06;100.00;96892.69;5041418;28;20209;-65
2022/06/23 04:41:13;;;;;;;16.20;15.00;;;;;;;17.20;100.00;96901.31;5045045;28;20318;-65
2022/06/23 04:43:43;;;;;;;16.77;15.43;;;;;;;17.42;100.00;96899.88;5035898;28;20281;-65
2022/06/23 04:46:14;;;;;;;16.67;15.30;;;;;;;17.46;100.00;96901.88;5044028;28;20503;-64
2022/06/23 04:48:49;;;;;;;16.73;15.33;;;;;;;17.53;100.00;96907.09;4973374;28;20480;-64
2022/06/23 04:51:25;;;;;;;17.10;15.83;;;;;;;17.49;100.00;96912.13;5043260;28;20199;-68
2022/06/23 04:53:58;;;;;;;17.57;16.17;;;;;;;17.52;100.00;96910.00;5024385;28;20215;-66
2022/06/23 04:56:34;;;;;;;16.50;15.20;;;;;;;17.73;100.00;96916.59;5044388;28;21051;-63
2022/06/23 04:59:08;;;;;;;17.93;16.33;;;;;;;17.79;100.00;96913.78;5040345;28;20299;-65
2022/06/23 05:01:40;;;;;;;17.03;15.63;;;;;;;17.81;100.00;96918.13;5040451;28;20312;-64
2022/06/23 05:04:16;;;;;;;18.13;16.63;;;;;;;17.94;100.00;96920.50;4998670;28;20235;-64
2022/06/23 05:06:46;;;;;;;16.40;15.10;;;;;;;18.04;100.00;96917.25;5039728;28;20523;-60
2022/06/23 05:09:23;;;;;;;16.80;15.50;;;;;;;18.30;100.00;96923.06;5027892;28;20294;-67
2022/06/23 05:11:53;;;;;;;18.57;16.70;;;;;;;18.25;100.00;96920.31;5042041;28;20226;-64
2022/06/23 05:14:24;;;;;;;17.70;16.33;;;;;;;18.41;100.00;96922.22;5043193;28;20254;-65
2022/06/23 05:16:56;;;;;;;18.33;16.60;;;;;;;18.47;100.00;96918.56;5017230;28;20371;-61
2022/06/23 05:19:29;;;;;;;16.30;14.90;;;;;;;18.56;100.00;96910.97;4996272;28;20210;-64
2022/06/23 05:21:59;;;;;;;17.33;15.93;;;;;;;18.60;100.00;96909.41;5048462;28;20330;-66
2022/06/23 05:24:30;;;;;;;16.37;14.87;;;;;;;18.63;100.00;96908.94;5024876;28;20262;-64
2022/06/23 05:27:01;;;;;;;16.83;15.57;;;;;;;18.65;100.00;96916.72;5047344;28;20202;-59
2022/06/23 05:29:44;;;;;;;16.10;15.00;;;;;;;18.39;100.00;96921.66;5042952;28;20908;-63
2022/06/23 05:32:22;;;;;;;15.87;14.53;;;;;;;18.37;100.00;96924.56;5044667;28;20283;-61
2022/06/23 05:34:58;;;;;;;15.57;14.37;;;;;;;18.51;100.00;96930.44;5003319;28;20633;-63
2022/06/23 05:37:32;;;;;;;17.70;16.20;;;;;;;18.51;100.00;96930.44;5040292;28;20285;-62
2022/06/23 05:40:12;;;;;;;18.17;16.67;;;;;;;18.45;100.00;96930.59;5046620;28;20249;-66
2022/06/23 05:42:46;;;;;;;18.50;17.20;;;;;;;18.33;100.00;96928.78;5036697;28;20242;-61
2022/06/23 05:45:18;;;;;;;19.33;17.23;;;;;;;18.38;100.00;96933.44;5047108;28;20322;-64
2022/06/23 05:47:46;;;;;;;17.83;16.27;;;;;;;18.51;100.00;96933.13;5044383;28;20445;-65
2022/06/23 05:50:19;;;;;;;20.17;18.47;;;;;;;18.66;100.00;96929.06;5006137;28;20301;-63
2022/06/23 05:52:52;;;;;;;18.10;16.70;;;;;;;18.71;100.00;96925.69;5046369;28;20204;-66
2022/06/23 05:55:28;;;;;;;18.20;16.50;;;;;;;18.98;100.00;96936.59;5044132;28;20325;-62
2022/06/23 05:57:59;;;;;;;18.67;16.93;;;;;;;19.08;100.00;96925.22;5036234;28;21174;-64
2022/06/23 06:00:33;;;;;;;21.13;19.23;;;;;;;19.13;100.00;96922.63;5040939;28;20662;-65
2022/06/23 06:03:07;;;;;;;19.43;17.93;;;;;;;19.28;100.00;96921.19;5045171;28;20717;-66
2022/06/23 06:05:37;;;;;;;19.07;17.47;;;;;;;19.31;100.00;96924.22;5002203;28;20751;-66
2022/06/23 06:08:07;;;;;;;19.60;18.00;;;;;;;19.60;100.00;96917.88;5041216;28;20330;-64
2022/06/23 06:10:37;;;;;;;19.77;18.07;;;;;;;19.79;100.00;96923.75;5043075;28;20435;-59
2022/06/23 06:13:10;;;;;;;19.20;17.80;;;;;;;19.80;100.00;96914.63;5034314;28;20234;-64
2022/06/23 06:15:41;;;;;;;18.97;17.37;;;;;;;19.61;100.00;96922.19;5044078;28;20442;-66
2022/06/23 06:18:29;;;;;;;17.90;16.37;;;;;;;19.55;100.00;96917.81;5045318;28;20225;-63
2022/06/23 06:21:00;;;;;;;17.40;16.00;;;;;;;19.40;100.00;96931.84;5005588;28;20284;-65
2022/06/23 06:23:35;;;;;;;17.47;16.17;;;;;;;19.59;100.00;96918.94;5044467;28;20203;-63
2022/06/23 06:26:06;;;;;;;16.50;15.10;;;;;;;19.57;100.00;96926.44;5048052;28;20287;-66
2022/06/23 06:28:35;;;;;;;16.40;15.10;;;;;;;19.72;100.00;96928.53;5032345;28;20222;-65
2022/06/23 06:31:10;;;;;;;18.37;16.77;;;;;;;19.80;100.00;96925.38;5045936;28;20191;-65
2022/06/23 06:33:46;;;;;;;16.87;15.53;;;;;;;20.30;100.00;96928.16;5043232;28;20206;-61
2022/06/23 06:36:28;;;;;;;18.63;17.07;;;;;;;20.60;100.00;96926.81;5001708;28;20308;-63
2022/06/23 06:39:02;;;;;;;17.90;16.60;;;;;;;20.99;100.00;96915.84;4995111;28;21090;-60
2022/06/23 06:41:32;;;;;;;18.00;16.30;;;;;;;21.38;100.00;96914.78;5043320;28;20589;-64
2022/06/23 06:44:01;;;;;;;16.10;14.73;;;;;;;21.68;100.00;96908.75;5044221;28;20984;-64
2022/06/23 06:46:31;;;;;;;17.87;16.50;;;;;;;21.48;100.00;96919.44;5042939;28;20582;-62
2022/06/23 06:49:00;;;;;;;18.00;16.13;;;;;;;21.27;100.00;96919.28;5032606;28;20851;-64
2022/06/23 06:51:29;;;;;;;15.90;14.60;;;;;;;21.40;100.00;96918.03;5043779;28;21380;-65
2022/06/23 06:54:00;;;;;;;16.80;15.07;;;;;;;21.20;100.00;96916.00;5003622;28;20508;-63
2022/06/23 06:56:35;;;;;;;16.30;15.07;;;;;;;21.42;100.00;96915.09;5044157;28;20695;-63
2022/06/23 06:59:10;;;;;;;17.50;16.00;;;;;;;21.67;100.00;96917.13;5044595;28;20351;-62
2022/06/23 07:01:39;;;;;;;16.90;15.60;;;;;;;21.85;100.00;96906.94;5039029;28;20280;-64
2022/06/23 07:04:10;;;;;;;16.43;15.03;;;;;;;22.33;100.00;96917.59;5041274;28;20333;-64
2022/06/23 07:06:42;;;;;;;16.43;15.03;;;;;;;22.78;100.00;96915.28;5040169;28;20223;-64
2022/06/23 07:09:16;;;;;;;16.00;14.50;;;;;;;23.04;100.00;96912.53;5006406;28;20203;-62
2022/06/23 07:11:50;;;;;;;15.53;14.13;;;;;;;23.10;100.00;96919.56;5043894;28;20450;-61
2022/06/23 07:14:23;;;;;;;16.40;14.80;;;;;;;22.96;100.00;96906.63;5046690;28;20313;-66
2022/06/23 07:16:55;;;;;;;15.70;14.50;;;;;;;23.05;100.00;96909.59;5040018;28;20357;-66
2022/06/23 07:19:30;;;;;;;14.77;13.47;;;;;;;22.63;100.00;96911.47;5045077;28;20230;-64
2022/06/23 07:22:04;;;;;;;15.23;13.80;;;;;;;22.78;100.00;96913.38;5042683;28;20439;-63
2022/06/23 07:24:37;;;;;;;15.77;14.47;;;;;;;22.28;100.00;96913.00;5036579;28;20219;-67
2022/06/23 07:27:14;;;;;;;14.83;13.70;;;;;;;21.79;100.00;96908.81;5033345;28;20801;-65
2022/06/23 07:29:45;;;;;;;15.60;14.10;;;;;;;21.84;100.00;96906.16;5043547;28;20297;-65
2022/06/23 07:32:18;;;;;;;15.80;14.50;;;;;;;22.16;100.00;96897.09;5044726;28;20206;-64
2022/06/23 07:34:50;;;;;;;16.97;15.40;;;;;;;22.07;100.00;96906.75;5041760;28;20314;-65
2022/06/23 07:37:23;;;;;;;16.63;15.10;;;;;;;22.06;100.00;96899.72;5043424;28;20456;-67
2022/06/23 07:39:57;;;;;;;15.33;13.80;;;;;;;22.45;100.00;96907.38;5041327;28;20403;-66
2022/06/23 07:42:43;;;;;;;14.87;13.33;;;;;;;22.29;100.00;96903.81;5002033;28;20523;-62
2022/06/23 07:45:15;;;;;;;14.63;13.30;;;;;;;22.61;100.00;96900.13;5044155;28;20320;-67
2022/06/23 07:47:44;;;;;;;13.63;12.63;;;;;;;22.68;100.00;96906.06;5040767;28;20636;-63
2022/06/23 07:50:12;;;;;;;14.33;12.87;;;;;;;22.73;100.00;96904.44;5045565;28;20199;-67
2022/06/23 07:52:40;;;;;;;11.47;10.43;;;;;;;22.97;100.00;96899.34;5042714;28;20261;-64
2022/06/23 07:55:11;;;;;;;9.67;8.87;;;;;;;22.85;100.00;96902.31;5045972;28;20737;-65
2022/06/23 07:58:01;;;;;;;8.17;7.57;;;;;;;22.94;100.00;96897.19;4999844;28;20393;-64
2022/06/23 08:00:30;;;;;;;10.03;9.13;;;;;;;23.22;100.00;96900.38;5041916;28;20202;-64
2022/06/23 08:03:00;;;;;;;7.60;7.03;;;;;;;23.18;100.00;96910.09;5039941;28;20651;-65
2022/06/23 08:05:38;;;;;;;7.90;7.27;;;;;;;23.13;100.00;96917.13;5044263;28;20225;-65
2022/06/23 08:08:07;;;;;;;6.17;5.60;;;;;;;23.08;100.00;96906.34;5044183;28;20207;-65
2022/06/23 08:10:36;;;;;;;6.63;5.97;;;;;;;23.31;100.00;96917.69;5041433;28;20306;-62
2022/06/23 08:13:09;;;;;;;4.27;4.00;;;;;;;23.36;100.00;96912.28;5001990;28;20223;-66
2022/06/23 08:18:32;;;;;;;5.63;5.03;;;;;;;23.87;100.00;96904.28;5044029;28;20276;-67
2022/06/23 08:21:05;;;;;;;5.33;5.03;;;;;;;24.28;100.00;96902.19;5043956;28;20207;-63
2022/06/23 08:23:36;;;;;;;5.93;5.43;;;;;;;24.43;100.00;96900.47;5038457;28;20309;-64
2022/06/23 08:26:07;;;;;;;4.87;4.60;;;;;;;24.57;100.00;96898.75;5037908;28;20659;-64
2022/06/23 08:28:38;;;;;;;5.57;4.67;;;;;;;24.71;100.00;96890.81;5002953;28;20218;-65
2022/06/23 08:31:07;;;;;;;5.07;4.57;;;;;;;25.07;100.00;96888.91;5045008;28;20513;-64
2022/06/23 08:33:35;;;;;;;5.80;4.83;;;;;;;25.37;100.00;96890.50;5045669;28;20280;-65
2022/06/23 08:36:09;;;;;;;5.23;4.83;;;;;;;25.02;100.00;96889.75;5042067;28;20318;-67
2022/06/23 08:38:45;;;;;;;4.87;4.47;;;;;;;24.71;100.00;96884.56;5041445;28;20641;-63
2022/06/23 08:41:22;;;;;;;4.63;4.23;;;;;;;24.30;100.00;96879.44;5043960;28;20200;-66
2022/06/23 08:44:15;;;;;;;5.33;4.87;;;;;;;24.77;100.00;96886.16;5038758;28;20724;-66
2022/06/23 08:46:48;;;;;;;6.00;5.40;;;;;;;24.68;100.00;96877.81;4994292;28;20287;-64
2022/06/23 08:49:23;;;;;;;6.10;4.63;;;;;;;24.49;100.00;96888.53;5021219;28;20241;-65
2022/06/23 08:51:56;;;;;;;4.37;4.07;;;;;;;24.46;100.00;96883.69;5039047;28;20202;-65
2022/06/23 08:54:29;;;;;;;5.30;4.80;;;;;;;24.56;100.00;96880.06;5049420;28;20224;-65
2022/06/23 08:57:05;;;;;;;7.10;6.43;;;;;;;24.73;100.00;96876.94;5032680;28;20214;-65
2022/06/23 08:59:41;;;;;;;5.07;4.70;;;;;;;25.26;100.00;96878.16;5050081;28;20613;-65
2022/06/23 09:02:14;;;;;;;6.73;6.17;;;;;;;25.11;100.00;96877.19;5007328;28;21816;-65
2022/06/23 09:05:00;;;;;;;5.70;5.13;;;;;;;24.55;100.00;96879.28;5048132;28;20787;-64
2022/06/23 09:07:36;;;;;;;5.23;4.33;;;;;;;24.21;100.00;96871.09;5047951;28;20235;-65
2022/06/23 09:10:12;;;;;;;6.10;4.73;;;;;;;23.74;100.00;96881.34;5011544;28;20438;-66
2022/06/23 09:12:46;;;;;;;4.53;4.23;;;;;;;23.82;100.00;96878.06;5053407;28;20198;-65
2022/06/23 09:15:34;;;;;;;5.63;5.13;;;;;;;23.60;100.00;96878.41;5047054;28;20954;-65
2022/06/23 09:18:44;;;;;;;4.93;4.50;;;;;;;23.67;100.00;96876.22;5005755;28;20232;-65
2022/06/23 09:21:27;;;;;;;6.50;5.90;;;;;;;24.25;100.00;96878.38;5025492;28;20199;-67
2022/06/23 09:24:23;;;;;;;5.67;5.27;;;;;;;24.68;100.00;96877.00;5011326;28;20314;-63
2022/06/23 09:26:56;;;;;;;6.87;6.33;;;;;;;24.74;100.00;96877.78;5004975;28;20200;-61
2022/06/23 09:29:33;;;;;;;5.87;5.47;;;;;;;24.74;100.00;96872.38;5027501;28;21009;-67
2022/06/23 09:32:08;;;;;;;5.47;5.17;;;;;;;24.76;100.00;96876.41;4985280;28;20947;-62
2022/06/23 09:34:53;;;;;;;5.63;5.17;;;;;;;24.94;100.00;96874.91;5027350;28;20254;-64
2022/06/23 09:37:41;;;;;;;5.87;5.30;;;;;;;25.55;100.00;96877.28;5026727;28;20215;-62
2022/06/23 09:40:23;;;;;;;5.57;4.80;;;;;;;26.08;100.00;96870.13;4994768;28;20204;-63
2022/06/23 09:43:20;;;;;;;4.80;4.40;;;;;;;26.76;100.00;96869.97;5026193;28;20223;-63
2022/06/23 09:46:00;;;;;;;4.97;4.47;;;;;;;27.45;100.00;96866.59;5011729;28;20372;-64
2022/06/23 09:48:48;;;;;;;6.17;4.27;;;;;;;26.98;99.06;96867.44;4983551;28;20277;-68
2022/06/23 09:51:35;;;;;;;5.23;4.20;;;;;;;26.66;100.00;96868.22;5027989;28;20223;-65
2022/06/23 09:54:42;;;;;;;6.67;4.70;;;;;;;26.97;100.00;96862.28;5005704;28;20251;-64
2022/06/23 09:57:31;;;;;;;4.57;3.83;;;;;;;26.64;100.00;96871.25;4999446;28;20265;-67
2022/06/23 10:00:08;;;;;;;4.37;3.60;;;;;;;27.08;99.20;96865.63;5044378;28;20407;-66
2022/06/23 10:02:48;;;;;;;5.10;4.07;;;;;;;26.97;96.18;96862.28;5047355;28;20750;-67
2022/06/23 10:05:54;;;;;;;5.47;3.97;;;;;;;26.85;100.00;96866.31;5023585;28;20438;-66
2022/06/23 10:08:28;;;;;;;5.63;4.20;;;;;;;26.61;100.00;96860.97;4987557;28;20275;-61
2022/06/23 10:11:18;;;;;;;4.27;3.97;;;;;;;26.57;100.00;96855.31;4960659;28;20212;-64
2022/06/23 10:14:01;;;;;;;5.93;4.20;;;;;;;26.46;100.00;96856.59;4985142;28;20209;-70
2022/06/23 10:17:01;;;;;;;6.03;5.43;;;;;;;26.87;100.00;96860.56;4987693;28;20711;-67
2022/06/23 10:19:40;;;;;;;5.93;5.47;;;;;;;27.06;100.00;96857.78;4947519;28;20209;-64
2022/06/23 10:22:32;;;;;;;5.17;4.70;;;;;;;26.75;100.00;96854.75;4982544;28;20632;-64
2022/06/23 10:25:41;;;;;;;5.57;4.73;;;;;;;26.75;100.00;96850.16;4968876;28;20252;-65
2022/06/23 10:28:20;;;;;;;5.43;4.90;;;;;;;26.93;100.00;96848.50;4914040;28;20246;-67
2022/06/23 10:30:54;;;;;;;7.30;5.13;;;;;;;26.83;100.00;96844.03;4927619;28;20305;-61
2022/06/23 10:33:36;;;;;;;5.07;4.63;;;;;;;27.20;100.00;96844.19;4928966;28;20201;-65
2022/06/23 10:36:27;;;;;;;5.00;4.60;;;;;;;27.29;100.00;96839.69;4883802;28;20543;-66
2022/06/23 10:39:03;;;;;;;5.00;4.50;;;;;;;27.83;98.64;96833.72;4925427;28;20270;-62
2022/06/23 10:42:04;;;;;;;5.67;4.60;;;;;;;28.25;98.56;96839.09;4914973;28;20619;-68
2022/06/23 10:44:51;;;;;;;4.87;4.40;;;;;;;28.20;99.22;96839.19;4943525;28;20655;-66
2022/06/23 10:47:35;;;;;;;4.50;4.10;;;;;;;29.08;85.05;96834.38;4980443;28;20506;-65
2022/06/23 10:50:36;;;;;;;5.80;4.27;;;;;;;28.79;92.26;96823.94;4939989;28;21418;-67
2022/06/23 10:53:54;;;;;;;4.30;3.90;;;;;;;29.00;89.33;96825.00;4933239;28;20817;-59
2022/06/23 10:56:37;;;;;;;4.13;3.80;;;;;;;29.24;87.28;96818.38;4963063;28;20450;-67
2022/06/23 10:59:19;;;;;;;4.60;4.10;;;;;;;29.69;81.62;96824.81;4982564;28;20476;-65
2022/06/23 11:02:09;;;;;;;4.37;4.00;;;;;;;29.41;82.25;96814.13;4985864;28;20785;-65
2022/06/23 11:04:58;;;;;;;4.17;3.70;;;;;;;29.11;79.67;96819.28;5043703;28;20314;-62
2022/06/23 11:07:37;;;;;;;3.93;3.63;;;;;;;29.09;79.43;96814.16;5040927;28;20565;-65
2022/06/23 11:10:30;;;;;;;4.40;3.67;;;;;;;29.13;76.53;96801.50;5003739;28;20689;-65
2022/06/23 11:13:10;;;;;;;4.67;3.57;;;;;;;29.12;82.23;96807.25;5048230;28;20260;-64
2022/06/23 11:15:58;;;;;;;5.30;3.70;;;;;;;28.83;81.36;96797.69;5043948;28;20772;-65
2022/06/23 11:18:38;;;;;;;4.20;3.80;;;;;;;29.12;82.44;96801.78;5027178;28;20236;-65
2022/06/23 11:21:17;;;;;;;4.60;4.20;;;;;;;29.56;72.99;96800.06;5041439;28;20488;-62
2022/06/23 11:23:52;;;;;;;4.20;3.67;;;;;;;29.08;76.51;96781.72;5041640;28;20457;-66
2022/06/23 11:26:31;;;;;;;4.27;3.87;;;;;;;28.81;76.67;96784.34;5002209;28;20828;-66
2022/06/23 11:29:12;;;;;;;4.67;3.23;;;;;;;29.24;76.24;96785.66;5048246;28;20676;-63
2022/06/23 11:31:49;;;;;;;6.33;3.30;;;;;;;30.27;67.75;96773.63;5046647;28;22347;-63
2022/06/23 11:34:42;;;;;;;3.83;3.60;;;;;;;29.81;68.86;96772.31;5027733;28;20207;-63
2022/06/23 11:37:29;;;;;;;3.73;3.33;;;;;;;29.74;64.31;96770.88;5040675;28;20650;-64
2022/06/23 11:40:23;;;;;;;5.87;3.17;;;;;;;29.57;66.62;96779.03;5004323;28;20306;-62
2022/06/23 11:43:01;;;;;;;3.80;3.50;;;;;;;29.75;62.28;96777.94;5044441;28;20305;-65
2022/06/23 11:45:38;;;;;;;5.83;4.00;;;;;;;29.34;63.02;96784.53;5045050;28;20303;-62
2022/06/23 11:48:26;;;;;;;3.30;3.00;;;;;;;29.60;67.97;96775.66;5031894;28;20654;-64
2022/06/23 11:51:01;;;;;;;3.57;2.87;;;;;;;29.84;64.30;96768.94;5046628;28;20275;-66
2022/06/23 11:53:45;;;;;;;4.20;2.83;;;;;;;30.29;55.92;96774.09;5040194;28;20705;-64
2022/06/23 11:56:20;;;;;;;6.70;3.27;;;;;;;30.01;60.13;96768.97;5000729;28;20676;-63
2022/06/23 11:59:03;;;;;;;3.97;2.93;;;;;;;29.93;56.75;96769.75;5045666;28;20198;-66
2022/06/23 12:01:33;;;;;;;3.43;3.13;;;;;;;30.16;56.13;96770.41;5043516;28;20265;-65
2022/06/23 12:04:24;;;;;;;3.30;3.00;;;;;;;29.07;60.49;96763.75;5032269;28;20234;-65